createdAt,value
2022-07-31T00:00:28.283Z,87
2022-07-31T00:00:59.511Z,87
2022-07-31T00:01:30.494Z,87
2022-07-31T00:02:03.336Z,87
2022-07-31T00:02:34.586Z,87
2022-07-31T00:03:07.368Z,87
2022-07-31T00:03:38.490Z,87
2022-07-31T00:04:11.344Z,87
2022-07-31T00:04:42.372Z,87
2022-07-31T00:05:15.403Z,87
2022-07-31T00:05:46.481Z,87
2022-07-31T00:06:19.093Z,87
2022-07-31T00:06:50.344Z,87
2022-07-31T00:07:23.248Z,87
2022-07-31T00:07:54.260Z,87
2022-07-31T00:08:27.194Z,87
2022-07-31T00:08:58.296Z,87
2022-07-31T00:09:52.688Z,87
2022-07-31T00:10:02.461Z,87
2022-07-31T00:10:35.113Z,87
2022-07-31T00:11:06.047Z,87
2022-07-31T00:11:39.024Z,87
2022-07-31T00:12:10.067Z,87
2022-07-31T00:12:42.763Z,87
2022-07-31T00:13:14.039Z,87
2022-07-31T00:13:56.604Z,87
2022-07-31T00:14:18.180Z,87
2022-07-31T00:14:50.778Z,87
2022-07-31T00:15:22.880Z,87
2022-07-31T00:15:55.136Z,87
2022-07-31T00:16:25.912Z,87
2022-07-31T00:16:59.108Z,87
2022-07-31T00:17:29.945Z,87
2022-07-31T00:18:02.743Z,87
2022-07-31T00:18:33.925Z,87
2022-07-31T00:19:06.804Z,87
2022-07-31T00:19:37.749Z,87
2022-07-31T00:20:10.871Z,87
2022-07-31T00:20:42.092Z,87
2022-07-31T00:21:14.536Z,87
2022-07-31T00:21:45.745Z,87
2022-07-31T00:22:18.693Z,87
2022-07-31T00:22:49.676Z,87
2022-07-31T00:23:22.464Z,87
2022-07-31T00:23:53.780Z,87
2022-07-31T00:24:26.782Z,87
2022-07-31T00:24:57.530Z,87
2022-07-31T00:25:31.030Z,87
2022-07-31T00:26:01.495Z,87
2022-07-31T00:26:34.438Z,87
2022-07-31T00:27:05.973Z,87
2022-07-31T00:27:38.418Z,87
2022-07-31T00:28:09.463Z,87
2022-07-31T00:28:42.380Z,87
2022-07-31T00:29:16.068Z,87
2022-07-31T00:29:46.492Z,87
2022-07-31T00:30:18.186Z,88
2022-07-31T00:30:50.281Z,88
2022-07-31T00:31:21.401Z,88
2022-07-31T00:31:54.202Z,88
2022-07-31T00:32:25.383Z,88
2022-07-31T00:32:58.278Z,88
2022-07-31T00:33:29.320Z,88
2022-07-31T00:34:02.306Z,88
2022-07-31T00:34:33.166Z,88
2022-07-31T00:35:06.187Z,88
2022-07-31T00:35:37.259Z,88
2022-07-31T00:36:10.039Z,88
2022-07-31T00:36:41.197Z,88
2022-07-31T00:37:14.039Z,88
2022-07-31T00:37:45.193Z,88
2022-07-31T00:38:26.851Z,88
2022-07-31T00:38:49.065Z,88
2022-07-31T00:39:21.853Z,88
2022-07-31T00:39:53.033Z,88
2022-07-31T00:40:26.114Z,88
2022-07-31T00:40:56.948Z,88
2022-07-31T00:41:29.624Z,88
2022-07-31T00:42:01.037Z,88
2022-07-31T00:42:33.725Z,88
2022-07-31T00:43:04.919Z,88
2022-07-31T00:43:37.792Z,88
2022-07-31T00:44:09.773Z,88
2022-07-31T00:44:41.605Z,88
2022-07-31T00:45:13.893Z,88
2022-07-31T00:45:46.727Z,88
2022-07-31T00:46:16.737Z,88
2022-07-31T00:46:49.543Z,88
2022-07-31T00:47:23.870Z,88
2022-07-31T00:47:55.770Z,88
2022-07-31T00:48:24.592Z,88
2022-07-31T00:48:57.596Z,88
2022-07-31T00:49:37.875Z,88
2022-07-31T00:50:01.692Z,88
2022-07-31T00:50:32.672Z,88
2022-07-31T00:51:05.351Z,88
2022-07-31T00:51:36.466Z,88
2022-07-31T00:52:09.449Z,88
2022-07-31T00:52:40.565Z,88
2022-07-31T00:53:13.463Z,88
2022-07-31T00:53:44.460Z,88
2022-07-31T00:54:23.059Z,88
2022-07-31T00:54:48.284Z,88
2022-07-31T00:55:21.429Z,88
2022-07-31T00:55:52.433Z,88
2022-07-31T00:56:25.184Z,88
2022-07-31T00:56:56.358Z,88
2022-07-31T00:57:29.220Z,88
2022-07-31T00:58:00.250Z,89
2022-07-31T00:58:33.975Z,89
2022-07-31T00:59:04.318Z,89
2022-07-31T00:59:37.744Z,89
2022-07-31T01:00:09.138Z,89
2022-07-31T01:00:40.884Z,89
2022-07-31T01:01:12.191Z,89
2022-07-31T01:01:44.867Z,89
2022-07-31T01:02:16.272Z,89
2022-07-31T01:02:48.810Z,89
2022-07-31T01:03:20.021Z,89
2022-07-31T01:03:52.901Z,89
2022-07-31T01:04:24.069Z,89
2022-07-31T01:04:56.858Z,89
2022-07-31T01:05:28.338Z,89
2022-07-31T01:06:00.813Z,89
2022-07-31T01:06:31.908Z,89
2022-07-31T01:07:05.156Z,89
2022-07-31T01:07:35.872Z,89
2022-07-31T01:08:08.634Z,89
2022-07-31T01:08:39.902Z,89
2022-07-31T01:09:12.457Z,89
2022-07-31T01:09:43.769Z,89
2022-07-31T01:10:16.846Z,89
2022-07-31T01:10:47.681Z,89
2022-07-31T01:11:20.545Z,89
2022-07-31T01:11:51.760Z,89
2022-07-31T01:12:24.452Z,89
2022-07-31T01:12:55.705Z,89
2022-07-31T01:13:28.432Z,89
2022-07-31T01:13:59.673Z,89
2022-07-31T01:14:32.369Z,89
2022-07-31T01:15:04.666Z,89
2022-07-31T01:15:36.464Z,89
2022-07-31T01:16:07.521Z,89
2022-07-31T01:16:40.393Z,89
2022-07-31T01:17:11.715Z,89
2022-07-31T01:17:45.364Z,89
2022-07-31T01:18:15.553Z,89
2022-07-31T01:18:48.275Z,89
2022-07-31T01:19:19.357Z,89
2022-07-31T01:19:52.173Z,89
2022-07-31T01:20:23.633Z,89
2022-07-31T01:20:55.983Z,89
2022-07-31T01:21:27.320Z,89
2022-07-31T01:22:00.174Z,89
2022-07-31T01:22:34.457Z,89
2022-07-31T01:23:04.007Z,89
2022-07-31T01:23:35.346Z,89
2022-07-31T01:24:08.008Z,89
2022-07-31T01:24:39.210Z,89
2022-07-31T01:25:12.252Z,89
2022-07-31T01:25:43.246Z,89
2022-07-31T01:26:16.054Z,89
2022-07-31T01:26:47.345Z,89
2022-07-31T01:27:19.923Z,89
2022-07-31T01:27:51.212Z,88
2022-07-31T01:28:23.934Z,88
2022-07-31T01:28:54.774Z,88
2022-07-31T01:29:27.686Z,88
2022-07-31T01:29:58.995Z,88
2022-07-31T01:30:32.741Z,88
2022-07-31T01:31:24.359Z,89
2022-07-31T01:31:35.888Z,89
2022-07-31T01:32:06.813Z,89
2022-07-31T01:32:39.634Z,89
2022-07-31T01:33:10.932Z,89
2022-07-31T01:33:43.633Z,89
2022-07-31T01:34:14.722Z,89
2022-07-31T01:34:47.605Z,89
2022-07-31T01:35:19.019Z,89
2022-07-31T01:35:51.336Z,89
2022-07-31T01:36:22.663Z,89
2022-07-31T01:36:55.588Z,89
2022-07-31T01:37:26.722Z,89
2022-07-31T01:37:59.491Z,89
2022-07-31T01:38:30.663Z,89
2022-07-31T01:39:03.351Z,89
2022-07-31T01:39:34.528Z,89
2022-07-31T01:40:07.549Z,89
2022-07-31T01:40:38.509Z,89
2022-07-31T01:41:11.188Z,89
2022-07-31T01:41:42.569Z,89
2022-07-31T01:42:15.222Z,89
2022-07-31T01:42:46.420Z,89
2022-07-31T01:43:19.310Z,89
2022-07-31T01:43:50.284Z,89
2022-07-31T01:44:23.117Z,89
2022-07-31T01:44:54.465Z,89
2022-07-31T01:45:28.066Z,89
2022-07-31T01:45:58.425Z,89
2022-07-31T01:46:30.992Z,89
2022-07-31T01:47:02.712Z,89
2022-07-31T01:47:35.107Z,89
2022-07-31T01:48:06.253Z,89
2022-07-31T01:48:39.012Z,89
2022-07-31T01:49:10.308Z,89
2022-07-31T01:49:43.001Z,89
2022-07-31T01:50:42.343Z,89
2022-07-31T01:51:02.188Z,89
2022-07-31T01:51:34.018Z,89
2022-07-31T01:52:07.182Z,89
2022-07-31T01:52:38.180Z,89
2022-07-31T01:53:10.544Z,89
2022-07-31T01:53:41.931Z,89
2022-07-31T01:54:14.978Z,89
2022-07-31T01:54:46.042Z,89
2022-07-31T01:55:18.890Z,89
2022-07-31T01:56:02.004Z,89
2022-07-31T01:56:22.626Z,89
2022-07-31T01:56:53.866Z,89
2022-07-31T01:57:26.681Z,89
2022-07-31T01:57:57.874Z,89
2022-07-31T01:58:30.828Z,89
2022-07-31T01:59:01.861Z,89
2022-07-31T01:59:34.586Z,89
2022-07-31T02:00:06.778Z,90
2022-07-31T02:00:38.525Z,90
2022-07-31T02:01:11.382Z,90
2022-07-31T02:01:42.746Z,90
2022-07-31T02:02:13.640Z,90
2022-07-31T02:02:46.809Z,90
2022-07-31T02:03:17.680Z,90
2022-07-31T02:03:51.420Z,90
2022-07-31T02:04:21.729Z,90
2022-07-31T02:04:54.293Z,90
2022-07-31T02:05:25.748Z,90
2022-07-31T02:05:58.620Z,90
2022-07-31T02:06:29.236Z,90
2022-07-31T02:07:02.348Z,90
2022-07-31T02:07:33.621Z,90
2022-07-31T02:08:06.462Z,90
2022-07-31T02:08:37.480Z,90
2022-07-31T02:09:10.344Z,90
2022-07-31T02:09:57.779Z,90
2022-07-31T02:10:14.410Z,90
2022-07-31T02:10:45.419Z,90
2022-07-31T02:11:18.408Z,90
2022-07-31T02:11:53.567Z,90
2022-07-31T02:12:32.055Z,90
2022-07-31T02:12:53.366Z,90
2022-07-31T02:13:26.065Z,90
2022-07-31T02:13:57.242Z,90
2022-07-31T02:14:30.169Z,90
2022-07-31T02:15:02.090Z,90
2022-07-31T02:15:34.132Z,90
2022-07-31T02:16:05.200Z,90
2022-07-31T02:16:37.987Z,90
2022-07-31T02:17:08.990Z,90
2022-07-31T02:17:42.036Z,90
2022-07-31T02:18:12.909Z,90
2022-07-31T02:18:45.783Z,90
2022-07-31T02:19:17.089Z,90
2022-07-31T02:19:59.556Z,90
2022-07-31T02:20:21.016Z,90
2022-07-31T02:20:53.783Z,90
2022-07-31T02:21:25.024Z,90
2022-07-31T02:21:57.779Z,90
2022-07-31T02:22:28.791Z,90
2022-07-31T02:23:01.841Z,90
2022-07-31T02:23:32.722Z,90
2022-07-31T02:24:05.620Z,90
2022-07-31T02:24:36.762Z,90
2022-07-31T02:25:09.718Z,90
2022-07-31T02:25:40.850Z,90
2022-07-31T02:26:13.422Z,90
2022-07-31T02:26:44.561Z,90
2022-07-31T02:27:58.102Z,90
2022-07-31T02:28:04.637Z,90
2022-07-31T02:28:36.516Z,90
2022-07-31T02:29:08.623Z,90
2022-07-31T02:29:25.562Z,90
2022-07-31T02:29:56.511Z,90
2022-07-31T02:30:38.789Z,90
2022-07-31T02:31:00.421Z,90
2022-07-31T02:31:33.235Z,90
2022-07-31T02:32:04.514Z,90
2022-07-31T02:32:37.394Z,90
2022-07-31T02:33:08.355Z,90
2022-07-31T02:33:41.296Z,90
2022-07-31T02:34:12.384Z,90
2022-07-31T02:34:45.157Z,90
2022-07-31T02:35:16.444Z,90
2022-07-31T02:35:49.320Z,90
2022-07-31T02:36:20.230Z,90
2022-07-31T02:36:53.213Z,90
2022-07-31T02:37:24.364Z,90
2022-07-31T02:37:57.094Z,90
2022-07-31T02:38:28.173Z,90
2022-07-31T02:39:01.022Z,90
2022-07-31T02:39:32.132Z,90
2022-07-31T02:40:04.932Z,90
2022-07-31T02:40:36.202Z,90
2022-07-31T02:41:08.761Z,90
2022-07-31T02:41:40.035Z,90
2022-07-31T02:42:13.826Z,90
2022-07-31T02:42:43.916Z,90
2022-07-31T02:43:16.849Z,90
2022-07-31T02:43:48.002Z,90
2022-07-31T02:44:27.114Z,90
2022-07-31T02:44:51.822Z,90
2022-07-31T02:45:08.852Z,90
2022-07-31T02:45:39.882Z,90
2022-07-31T02:46:11.816Z,90
2022-07-31T02:46:43.868Z,90
2022-07-31T02:47:15.736Z,90
2022-07-31T02:47:48.671Z,90
2022-07-31T02:48:19.797Z,90
2022-07-31T02:48:52.580Z,90
2022-07-31T02:49:23.778Z,90
2022-07-31T02:49:56.666Z,90
2022-07-31T02:50:27.856Z,90
2022-07-31T02:51:00.708Z,90
2022-07-31T02:51:31.733Z,90
2022-07-31T02:52:05.066Z,90
2022-07-31T02:52:35.539Z,90
2022-07-31T02:53:08.471Z,90
2022-07-31T02:53:39.446Z,90
2022-07-31T02:54:12.297Z,90
2022-07-31T02:54:43.544Z,90
2022-07-31T02:55:16.420Z,90
2022-07-31T02:55:47.323Z,90
2022-07-31T02:56:20.422Z,90
2022-07-31T02:56:51.432Z,90
2022-07-31T02:57:24.342Z,90
2022-07-31T02:57:55.321Z,90
2022-07-31T02:58:28.103Z,90
2022-07-31T02:58:59.285Z,90
2022-07-31T02:59:32.246Z,90
2022-07-31T03:00:04.462Z,90
2022-07-31T03:00:36.139Z,90
2022-07-31T03:01:07.349Z,90
2022-07-31T03:01:40.059Z,91
2022-07-31T03:02:11.050Z,91
2022-07-31T03:02:43.939Z,91
2022-07-31T03:03:15.228Z,91
2022-07-31T03:03:47.910Z,91
2022-07-31T03:04:18.965Z,91
2022-07-31T03:04:51.946Z,91
2022-07-31T03:05:23.155Z,91
2022-07-31T03:05:55.787Z,90
2022-07-31T03:06:27.106Z,90
2022-07-31T03:06:59.879Z,90
2022-07-31T03:07:30.974Z,90
2022-07-31T03:08:03.978Z,90
2022-07-31T03:08:34.997Z,90
2022-07-31T03:09:07.635Z,90
2022-07-31T03:09:38.843Z,90
2022-07-31T03:10:11.819Z,90
2022-07-31T03:10:42.895Z,90
2022-07-31T03:11:15.908Z,90
2022-07-31T03:11:46.932Z,90
2022-07-31T03:12:19.724Z,90
2022-07-31T03:12:50.774Z,90
2022-07-31T03:13:23.616Z,90
2022-07-31T03:13:54.653Z,90
2022-07-31T03:14:32.713Z,90
2022-07-31T03:14:58.706Z,90
2022-07-31T03:15:32.301Z,90
2022-07-31T03:16:02.601Z,90
2022-07-31T03:16:35.706Z,90
2022-07-31T03:17:06.525Z,90
2022-07-31T03:17:41.113Z,90
2022-07-31T03:18:11.672Z,90
2022-07-31T03:18:43.307Z,90
2022-07-31T03:19:14.581Z,90
2022-07-31T03:19:47.362Z,90
2022-07-31T03:20:18.577Z,90
2022-07-31T03:20:51.389Z,90
2022-07-31T03:21:22.567Z,90
2022-07-31T03:21:55.311Z,90
2022-07-31T03:22:26.316Z,90
2022-07-31T03:22:59.368Z,90
2022-07-31T03:23:30.416Z,90
2022-07-31T03:24:03.202Z,91
2022-07-31T03:24:34.315Z,91
2022-07-31T03:25:07.459Z,91
2022-07-31T03:25:38.179Z,91
2022-07-31T03:26:11.027Z,91
2022-07-31T03:26:42.281Z,91
2022-07-31T03:27:14.975Z,91
2022-07-31T03:27:46.174Z,91
2022-07-31T03:28:18.951Z,91
2022-07-31T03:28:50.052Z,91
2022-07-31T03:29:42.548Z,91
2022-07-31T03:29:54.109Z,91
2022-07-31T03:30:27.685Z,91
2022-07-31T03:30:57.968Z,91
2022-07-31T03:31:30.853Z,91
2022-07-31T03:32:02.187Z,91
2022-07-31T03:32:34.898Z,91
2022-07-31T03:33:05.933Z,91
2022-07-31T03:33:38.839Z,91
2022-07-31T03:34:09.826Z,91
2022-07-31T03:34:42.868Z,91
2022-07-31T03:35:14.177Z,91
2022-07-31T03:35:47.635Z,91
2022-07-31T03:36:17.769Z,91
2022-07-31T03:36:51.452Z,91
2022-07-31T03:37:21.731Z,91
2022-07-31T03:37:54.732Z,91
2022-07-31T03:38:38.574Z,91
2022-07-31T03:38:58.391Z,91
2022-07-31T03:39:29.641Z,91
2022-07-31T03:40:02.699Z,91
2022-07-31T03:40:33.506Z,91
2022-07-31T03:41:06.433Z,91
2022-07-31T03:41:37.656Z,91
2022-07-31T03:42:18.489Z,91
2022-07-31T03:42:41.638Z,91
2022-07-31T03:43:14.518Z,91
2022-07-31T03:43:48.123Z,91
2022-07-31T03:44:18.089Z,91
2022-07-31T03:44:49.471Z,91
2022-07-31T03:45:23.262Z,91
2022-07-31T03:45:53.366Z,91
2022-07-31T03:46:26.265Z,91
2022-07-31T03:46:57.246Z,91
2022-07-31T03:47:30.113Z,91
2022-07-31T03:48:01.391Z,91
2022-07-31T03:48:34.293Z,91
2022-07-31T03:49:05.362Z,91
2022-07-31T03:49:38.244Z,91
2022-07-31T03:50:09.426Z,91
2022-07-31T03:50:42.571Z,90
2022-07-31T03:51:13.479Z,90
2022-07-31T03:51:46.180Z,90
2022-07-31T03:52:17.345Z,90
2022-07-31T03:52:50.348Z,90
2022-07-31T03:53:21.209Z,90
2022-07-31T03:53:54.021Z,90
2022-07-31T03:54:25.222Z,90
2022-07-31T03:54:58.124Z,90
2022-07-31T03:55:29.415Z,90
2022-07-31T03:56:02.208Z,90
2022-07-31T03:56:33.297Z,90
2022-07-31T03:57:05.968Z,90
2022-07-31T03:57:37.091Z,90
2022-07-31T03:58:10.024Z,90
2022-07-31T03:58:40.991Z,90
2022-07-31T03:59:13.813Z,90
2022-07-31T03:59:48.470Z,90
2022-07-31T04:00:18.663Z,90
2022-07-31T04:00:48.974Z,90
2022-07-31T04:01:22.023Z,90
2022-07-31T04:01:57.345Z,90
2022-07-31T04:02:25.885Z,90
2022-07-31T04:02:56.936Z,90
2022-07-31T04:03:29.638Z,90
2022-07-31T04:04:00.810Z,90
2022-07-31T04:04:33.680Z,90
2022-07-31T04:05:09.758Z,90
2022-07-31T04:05:37.762Z,91
2022-07-31T04:06:08.610Z,91
2022-07-31T04:06:41.592Z,91
2022-07-31T04:07:12.679Z,91
2022-07-31T04:07:45.540Z,91
2022-07-31T04:08:16.724Z,91
2022-07-31T04:08:49.579Z,91
2022-07-31T04:09:20.694Z,91
2022-07-31T04:09:53.630Z,91
2022-07-31T04:10:24.702Z,91
2022-07-31T04:10:57.415Z,91
2022-07-31T04:11:28.552Z,91
2022-07-31T04:12:01.944Z,91
2022-07-31T04:12:32.412Z,91
2022-07-31T04:13:05.525Z,91
2022-07-31T04:13:36.368Z,91
2022-07-31T04:14:09.223Z,91
2022-07-31T04:14:40.481Z,91
2022-07-31T04:15:13.801Z,91
2022-07-31T04:15:44.289Z,91
2022-07-31T04:16:17.324Z,91
2022-07-31T04:16:48.136Z,91
2022-07-31T04:17:21.287Z,91
2022-07-31T04:17:52.302Z,91
2022-07-31T04:18:25.108Z,91
2022-07-31T04:18:56.090Z,91
2022-07-31T04:19:29.025Z,91
2022-07-31T04:20:00.569Z,91
2022-07-31T04:20:33.159Z,91
2022-07-31T04:21:04.151Z,91
2022-07-31T04:21:37.053Z,91
2022-07-31T04:22:08.367Z,91
2022-07-31T04:22:41.013Z,91
2022-07-31T04:23:12.049Z,91
2022-07-31T04:23:49.574Z,91
2022-07-31T04:24:16.015Z,91
2022-07-31T04:24:48.858Z,91
2022-07-31T04:25:20.090Z,91
2022-07-31T04:25:52.704Z,91
2022-07-31T04:26:26.281Z,91
2022-07-31T04:26:56.582Z,91
2022-07-31T04:27:27.881Z,91
2022-07-31T04:28:00.719Z,91
2022-07-31T04:28:31.950Z,91
2022-07-31T04:29:04.612Z,91
2022-07-31T04:29:35.840Z,91
2022-07-31T04:30:09.537Z,91
2022-07-31T04:30:39.789Z,91
2022-07-31T04:31:13.442Z,91
2022-07-31T04:31:43.814Z,91
2022-07-31T04:32:16.636Z,91
2022-07-31T04:32:47.656Z,91
2022-07-31T04:33:20.575Z,91
2022-07-31T04:33:56.135Z,91
2022-07-31T04:34:24.534Z,91
2022-07-31T04:34:55.636Z,91
2022-07-31T04:35:28.771Z,90
2022-07-31T04:35:59.502Z,90
2022-07-31T04:36:32.398Z,90
2022-07-31T04:37:03.378Z,90
2022-07-31T04:37:36.424Z,90
2022-07-31T04:38:07.432Z,90
2022-07-31T04:38:41.206Z,90
2022-07-31T04:39:11.299Z,90
2022-07-31T04:39:44.134Z,90
2022-07-31T04:40:15.458Z,90
2022-07-31T04:40:48.203Z,90
2022-07-31T04:41:19.306Z,90
2022-07-31T04:41:52.077Z,90
2022-07-31T04:42:23.174Z,90
2022-07-31T04:42:56.273Z,90
2022-07-31T04:43:27.282Z,90
2022-07-31T04:44:00.058Z,90
2022-07-31T04:44:31.181Z,90
2022-07-31T04:45:04.788Z,90
2022-07-31T04:45:35.011Z,90
2022-07-31T04:46:17.170Z,90
2022-07-31T04:46:39.096Z,90
2022-07-31T04:47:12.008Z,90
2022-07-31T04:47:42.974Z,90
2022-07-31T04:48:15.891Z,89
2022-07-31T04:48:46.947Z,89
2022-07-31T04:49:19.858Z,89
2022-07-31T04:49:50.972Z,89
2022-07-31T04:50:23.864Z,89
2022-07-31T04:50:54.823Z,89
2022-07-31T04:51:27.688Z,89
2022-07-31T04:51:58.826Z,89
2022-07-31T04:52:31.882Z,89
2022-07-31T04:53:02.997Z,89
2022-07-31T04:53:35.768Z,89
2022-07-31T04:54:06.769Z,89
2022-07-31T04:54:39.690Z,88
2022-07-31T04:55:10.969Z,88
2022-07-31T04:55:44.352Z,88
2022-07-31T04:56:14.676Z,88
2022-07-31T04:56:48.483Z,88
2022-07-31T04:57:21.977Z,88
2022-07-31T04:57:51.618Z,88
2022-07-31T04:58:22.681Z,88
2022-07-31T04:58:56.250Z,88
2022-07-31T04:59:57.750Z,88
2022-07-31T05:00:15.324Z,88
2022-07-31T05:00:46.432Z,88
2022-07-31T05:01:18.436Z,87
2022-07-31T05:01:50.531Z,87
2022-07-31T05:02:22.492Z,87
2022-07-31T05:02:54.546Z,87
2022-07-31T05:03:26.379Z,87
2022-07-31T05:03:58.389Z,87
2022-07-31T05:04:30.357Z,87
2022-07-31T05:05:02.508Z,87
2022-07-31T05:05:35.173Z,87
2022-07-31T05:06:06.377Z,87
2022-07-31T05:06:39.028Z,87
2022-07-31T05:07:10.300Z,87
2022-07-31T05:07:43.034Z,87
2022-07-31T05:08:14.059Z,87
2022-07-31T05:08:47.044Z,86
2022-07-31T05:09:19.006Z,86
2022-07-31T05:09:51.005Z,86
2022-07-31T05:10:22.286Z,86
2022-07-31T05:10:54.943Z,86
2022-07-31T05:11:26.017Z,86
2022-07-31T05:11:58.895Z,86
2022-07-31T05:12:30.056Z,86
2022-07-31T05:13:03.020Z,86
2022-07-31T05:13:33.966Z,86
2022-07-31T05:14:06.946Z,86
2022-07-31T05:14:38.063Z,86
2022-07-31T05:15:11.435Z,86
2022-07-31T05:15:41.953Z,86
2022-07-31T05:16:18.740Z,85
2022-07-31T05:16:45.823Z,85
2022-07-31T05:17:18.754Z,85
2022-07-31T05:17:49.887Z,85
2022-07-31T05:18:22.514Z,85
2022-07-31T05:18:53.766Z,85
2022-07-31T05:19:26.589Z,85
2022-07-31T05:19:57.594Z,85
2022-07-31T05:20:30.829Z,85
2022-07-31T05:21:01.680Z,85
2022-07-31T05:21:34.508Z,85
2022-07-31T05:22:06.020Z,85
2022-07-31T05:22:38.523Z,85
2022-07-31T05:23:09.504Z,85
2022-07-31T05:23:42.487Z,84
2022-07-31T05:24:13.594Z,84
2022-07-31T05:24:46.326Z,84
2022-07-31T05:25:17.739Z,84
2022-07-31T05:25:50.402Z,84
2022-07-31T05:26:21.332Z,84
2022-07-31T05:26:54.990Z,84
2022-07-31T05:27:25.562Z,84
2022-07-31T05:27:58.171Z,84
2022-07-31T05:28:29.908Z,84
2022-07-31T05:29:02.141Z,84
2022-07-31T05:29:33.230Z,84
2022-07-31T05:30:07.214Z,84
2022-07-31T05:30:37.317Z,84
2022-07-31T05:31:09.965Z,84
2022-07-31T05:31:59.924Z,84
2022-07-31T05:32:14.583Z,84
2022-07-31T05:32:45.110Z,84
2022-07-31T05:33:17.915Z,84
2022-07-31T05:33:49.140Z,84
2022-07-31T05:34:21.958Z,84
2022-07-31T05:34:53.076Z,84
2022-07-31T05:35:26.224Z,84
2022-07-31T05:35:56.998Z,84
2022-07-31T05:36:29.866Z,83
2022-07-31T05:37:01.483Z,83
2022-07-31T05:37:34.207Z,83
2022-07-31T05:38:05.207Z,83
2022-07-31T05:38:38.007Z,83
2022-07-31T05:39:09.146Z,83
2022-07-31T05:39:41.831Z,83
2022-07-31T05:40:13.321Z,83
2022-07-31T05:40:45.882Z,83
2022-07-31T05:41:17.058Z,83
2022-07-31T05:41:49.892Z,83
2022-07-31T05:42:21.121Z,83
2022-07-31T05:42:54.071Z,83
2022-07-31T05:43:25.064Z,83
2022-07-31T05:43:57.932Z,82
2022-07-31T05:44:28.954Z,82
2022-07-31T05:45:02.983Z,82
2022-07-31T05:45:32.782Z,82
2022-07-31T05:46:06.769Z,82
2022-07-31T05:46:36.916Z,82
2022-07-31T05:47:09.777Z,82
2022-07-31T05:47:41.132Z,82
2022-07-31T05:48:13.776Z,82
2022-07-31T05:48:44.712Z,82
2022-07-31T05:49:17.842Z,82
2022-07-31T05:49:48.827Z,82
2022-07-31T05:50:21.706Z,82
2022-07-31T05:50:52.641Z,82
2022-07-31T05:51:25.815Z,81
2022-07-31T05:51:56.530Z,81
2022-07-31T05:52:29.398Z,81
2022-07-31T05:53:00.677Z,81
2022-07-31T05:53:33.596Z,81
2022-07-31T05:54:04.464Z,81
2022-07-31T05:54:38.367Z,81
2022-07-31T05:55:08.707Z,81
2022-07-31T05:55:41.273Z,81
2022-07-31T05:56:12.442Z,81
2022-07-31T05:56:45.410Z,81
2022-07-31T05:57:34.098Z,81
2022-07-31T05:57:49.316Z,81
2022-07-31T05:58:20.476Z,81
2022-07-31T05:58:54.184Z,81
2022-07-31T05:59:24.397Z,81
2022-07-31T05:59:57.147Z,81
2022-07-31T06:00:29.248Z,81
2022-07-31T06:01:01.243Z,81
2022-07-31T06:01:32.483Z,81
2022-07-31T06:02:06.284Z,81
2022-07-31T06:02:36.196Z,81
2022-07-31T06:03:09.096Z,80
2022-07-31T06:03:52.305Z,80
2022-07-31T06:04:14.076Z,80
2022-07-31T06:04:44.175Z,80
2022-07-31T06:05:17.371Z,80
2022-07-31T06:05:48.125Z,80
2022-07-31T06:06:20.887Z,80
2022-07-31T06:06:51.938Z,80
2022-07-31T06:07:24.947Z,80
2022-07-31T06:07:56.028Z,80
2022-07-31T06:08:28.628Z,80
2022-07-31T06:09:04.547Z,80
2022-07-31T06:09:32.734Z,79
2022-07-31T06:10:04.303Z,79
2022-07-31T06:10:36.910Z,79
2022-07-31T06:11:07.964Z,79
2022-07-31T06:11:40.930Z,79
2022-07-31T06:12:11.777Z,79
2022-07-31T06:12:44.837Z,78
2022-07-31T06:13:15.807Z,78
2022-07-31T06:13:50.594Z,78
2022-07-31T06:14:19.737Z,78
2022-07-31T06:14:52.781Z,78
2022-07-31T06:15:24.523Z,78
2022-07-31T06:15:56.707Z,78
2022-07-31T06:16:27.813Z,78
2022-07-31T06:17:00.585Z,78
2022-07-31T06:17:43.959Z,78
2022-07-31T06:18:04.425Z,78
2022-07-31T06:18:35.577Z,78
2022-07-31T06:19:08.486Z,78
2022-07-31T06:19:39.529Z,78
2022-07-31T06:20:12.487Z,78
2022-07-31T06:20:43.464Z,78
2022-07-31T06:21:47.589Z,78
2022-07-31T06:22:21.368Z,77
2022-07-31T06:22:51.433Z,77
2022-07-31T06:23:32.009Z,77
2022-07-31T06:23:55.423Z,77
2022-07-31T06:24:28.247Z,77
2022-07-31T06:24:59.281Z,77
2022-07-31T06:25:34.946Z,77
2022-07-31T06:26:03.466Z,77
2022-07-31T06:26:36.091Z,77
2022-07-31T06:27:07.324Z,77
2022-07-31T06:27:40.056Z,77
2022-07-31T06:28:11.107Z,77
2022-07-31T06:28:47.688Z,77
2022-07-31T06:29:14.987Z,77
2022-07-31T06:29:48.040Z,77
2022-07-31T06:30:19.847Z,77
2022-07-31T06:30:51.824Z,77
2022-07-31T06:31:23.045Z,77
2022-07-31T06:31:55.931Z,76
2022-07-31T06:32:26.996Z,76
2022-07-31T06:33:00.108Z,76
2022-07-31T06:33:37.691Z,76
2022-07-31T06:34:03.636Z,76
2022-07-31T06:34:35.038Z,76
2022-07-31T06:35:07.957Z,76
2022-07-31T06:35:38.801Z,76
2022-07-31T06:36:11.714Z,75
2022-07-31T06:36:42.855Z,75
2022-07-31T06:37:15.784Z,76
2022-07-31T06:37:46.911Z,76
2022-07-31T06:38:19.782Z,75
2022-07-31T06:38:50.944Z,75
2022-07-31T06:39:23.413Z,75
2022-07-31T06:40:10.928Z,75
2022-07-31T06:40:42.679Z,74
2022-07-31T06:41:14.441Z,74
2022-07-31T06:41:47.728Z,74
2022-07-31T06:42:18.631Z,74
2022-07-31T06:42:51.530Z,73
2022-07-31T06:43:22.470Z,73
2022-07-31T06:43:55.487Z,72
2022-07-31T06:44:26.606Z,72
2022-07-31T06:44:59.338Z,72
2022-07-31T06:45:51.745Z,72
2022-07-31T06:46:03.505Z,72
2022-07-31T06:46:34.371Z,72
2022-07-31T06:47:07.263Z,72
2022-07-31T06:47:38.468Z,72
2022-07-31T06:48:11.180Z,73
2022-07-31T06:48:42.320Z,73
2022-07-31T06:49:16.093Z,73
2022-07-31T06:49:46.349Z,73
2022-07-31T06:50:20.151Z,73
2022-07-31T06:50:50.296Z,73
2022-07-31T06:51:31.881Z,73
2022-07-31T06:51:54.292Z,73
2022-07-31T06:52:27.209Z,73
2022-07-31T06:52:58.104Z,73
2022-07-31T06:53:31.988Z,73
2022-07-31T06:54:02.163Z,73
2022-07-31T06:54:34.758Z,73
2022-07-31T06:55:06.170Z,73
2022-07-31T06:55:44.782Z,72
2022-07-31T06:56:09.916Z,72
2022-07-31T06:56:42.985Z,72
2022-07-31T06:57:13.982Z,72
2022-07-31T06:57:46.813Z,71
2022-07-31T06:58:18.007Z,71
2022-07-31T06:58:50.719Z,70
2022-07-31T06:59:39.216Z,70
2022-07-31T06:59:54.705Z,70
2022-07-31T07:00:26.693Z,70
2022-07-31T07:00:59.657Z,70
2022-07-31T07:01:29.993Z,70
2022-07-31T07:02:03.249Z,70
2022-07-31T07:02:33.704Z,70
2022-07-31T07:03:06.917Z,69
2022-07-31T07:03:37.777Z,69
2022-07-31T07:04:10.483Z,69
2022-07-31T07:05:00.774Z,69
2022-07-31T07:05:14.632Z,68
2022-07-31T07:05:45.618Z,68
2022-07-31T07:06:18.301Z,68
2022-07-31T07:06:49.654Z,68
2022-07-31T07:07:25.516Z,66
2022-07-31T07:07:53.492Z,66
2022-07-31T07:08:26.582Z,66
2022-07-31T07:08:57.436Z,66
2022-07-31T07:09:30.206Z,66
2022-07-31T07:10:01.761Z,66
2022-07-31T07:10:34.068Z,66
2022-07-31T07:11:06.803Z,66
2022-07-31T07:11:39.060Z,67
2022-07-31T07:12:09.251Z,67
2022-07-31T07:12:42.381Z,65
2022-07-31T07:13:13.425Z,65
2022-07-31T07:13:49.048Z,67
2022-07-31T07:14:17.318Z,67
2022-07-31T07:14:51.089Z,66
2022-07-31T07:15:21.893Z,66
2022-07-31T07:15:54.884Z,66
2022-07-31T07:16:25.261Z,66
2022-07-31T07:16:59.786Z,67
2022-07-31T07:17:29.653Z,67
2022-07-31T07:18:02.290Z,67
2022-07-31T07:18:33.178Z,67
2022-07-31T07:19:05.826Z,66
2022-07-31T07:19:37.169Z,66
2022-07-31T07:20:09.783Z,65
2022-07-31T07:20:41.138Z,65
2022-07-31T07:21:13.894Z,65
2022-07-31T07:21:44.867Z,65
2022-07-31T07:22:19.813Z,66
2022-07-31T07:22:48.970Z,66
2022-07-31T07:23:21.822Z,66
2022-07-31T07:23:52.773Z,66
2022-07-31T07:24:25.815Z,64
2022-07-31T07:24:56.878Z,64
2022-07-31T07:25:29.948Z,64
2022-07-31T07:26:00.841Z,64
2022-07-31T07:26:33.414Z,64
2022-07-31T07:27:04.792Z,64
2022-07-31T07:27:37.697Z,63
2022-07-31T07:28:12.171Z,63
2022-07-31T07:28:41.519Z,64
2022-07-31T07:29:12.697Z,64
2022-07-31T07:29:45.848Z,64
2022-07-31T07:30:17.332Z,64
2022-07-31T07:30:50.489Z,64
2022-07-31T07:31:20.549Z,64
2022-07-31T07:31:53.323Z,63
2022-07-31T07:32:24.617Z,63
2022-07-31T07:32:57.502Z,63
2022-07-31T07:33:41.604Z,63
2022-07-31T07:34:01.760Z,61
2022-07-31T07:34:32.313Z,61
2022-07-31T07:35:06.209Z,61
2022-07-31T07:35:36.521Z,61
2022-07-31T07:36:23.677Z,62
2022-07-31T07:36:40.297Z,62
2022-07-31T07:37:13.383Z,61